sensor_id;sensor_type;location;lat;lon;timestamp;pressure;altitude;pressure_sealevel;temperature;humidity
80321;BME280;69633;47.066;15.450;2024-01-06T00:02:14;96406.03;;;7.71;67.42
80321;BME280;69633;47.066;15.450;2024-01-06T00:04:40;96406.63;;;7.80;67.77
80321;BME280;69633;47.066;15.450;2024-01-06T00:07:05;96409.03;;;7.85;67.69
80321;BME280;69633;47.066;15.450;2024-01-06T00:09:31;96403.09;;;7.88;67.27
80321;BME280;69633;47.066;15.450;2024-01-06T00:11:56;96405.16;;;7.95;67.44
80321;BME280;69633;47.066;15.450;2024-01-06T00:14:22;96407.44;;;7.96;67.21
80321;BME280;69633;47.066;15.450;2024-01-06T00:16:47;96409.66;;;7.94;66.86
80321;BME280;69633;47.066;15.450;2024-01-06T00:19:12;96405.91;;;7.95;66.87
80321;BME280;69633;47.066;15.450;2024-01-06T00:21:38;96403.53;;;7.90;67.48
80321;BME280;69633;47.066;15.450;2024-01-06T00:24:04;96403.84;;;7.89;67.08
80321;BME280;69633;47.066;15.450;2024-01-06T00:26:29;96399.56;;;7.84;67.16
80321;BME280;69633;47.066;15.450;2024-01-06T00:28:55;96397.28;;;7.83;67.38
80321;BME280;69633;47.066;15.450;2024-01-06T00:31:20;96393.44;;;7.80;67.15
80321;BME280;69633;47.066;15.450;2024-01-06T00:33:46;96396.44;;;7.78;67.11
80321;BME280;69633;47.066;15.450;2024-01-06T00:36:11;96403.25;;;7.80;66.90
80321;BME280;69633;47.066;15.450;2024-01-06T00:38:37;96395.84;;;7.85;66.76
80321;BME280;69633;47.066;15.450;2024-01-06T00:41:02;96404.22;;;7.87;67.30
80321;BME280;69633;47.066;15.450;2024-01-06T00:43:28;96411.88;;;7.92;67.13
80321;BME280;69633;47.066;15.450;2024-01-06T00:45:54;96411.19;;;7.95;66.44
80321;BME280;69633;47.066;15.450;2024-01-06T00:48:19;96394.69;;;7.98;66.06
80321;BME280;69633;47.066;15.450;2024-01-06T00:50:45;96393.81;;;7.94;66.85
80321;BME280;69633;47.066;15.450;2024-01-06T00:53:11;96396.09;;;7.96;66.48
80321;BME280;69633;47.066;15.450;2024-01-06T00:55:37;96386.81;;;7.86;67.06
80321;BME280;69633;47.066;15.450;2024-01-06T00:58:02;96386.28;;;7.81;67.25
80321;BME280;69633;47.066;15.450;2024-01-06T01:00:28;96384.69;;;7.76;66.80
80321;BME280;69633;47.066;15.450;2024-01-06T01:02:53;96383.13;;;7.75;66.91
80321;BME280;69633;47.066;15.450;2024-01-06T01:05:19;96378.94;;;7.74;67.26
80321;BME280;69633;47.066;15.450;2024-01-06T01:07:44;96375.31;;;7.78;67.41
80321;BME280;69633;47.066;15.450;2024-01-06T01:10:10;96373.06;;;7.81;66.97
80321;BME280;69633;47.066;15.450;2024-01-06T01:12:35;96369.88;;;7.87;67.44
80321;BME280;69633;47.066;15.450;2024-01-06T01:15:01;96372.00;;;7.97;67.09
80321;BME280;69633;47.066;15.450;2024-01-06T01:17:27;96374.47;;;7.90;66.56
80321;BME280;69633;47.066;15.450;2024-01-06T01:19:52;96373.69;;;7.90;66.63
80321;BME280;69633;47.066;15.450;2024-01-06T01:22:18;96368.25;;;7.98;66.45
80321;BME280;69633;47.066;15.450;2024-01-06T01:24:43;96373.44;;;8.10;66.15
80321;BME280;69633;47.066;15.450;2024-01-06T01:27:09;96380.50;;;8.06;66.37
80321;BME280;69633;47.066;15.450;2024-01-06T01:29:34;96370.59;;;7.88;66.34
80321;BME280;69633;47.066;15.450;2024-01-06T01:32:00;96372.81;;;7.70;67.15
80321;BME280;69633;47.066;15.450;2024-01-06T01:34:25;96367.53;;;7.70;67.51
80321;BME280;69633;47.066;15.450;2024-01-06T01:36:51;96359.75;;;7.61;67.70
80321;BME280;69633;47.066;15.450;2024-01-06T01:39:17;96362.84;;;7.63;67.79
80321;BME280;69633;47.066;15.450;2024-01-06T01:41:42;96352.69;;;7.65;67.45
80321;BME280;69633;47.066;15.450;2024-01-06T01:44:08;96351.72;;;7.58;67.77
80321;BME280;69633;47.066;15.450;2024-01-06T01:46:33;96353.91;;;7.68;67.76
80321;BME280;69633;47.066;15.450;2024-01-06T01:49:00;96344.44;;;7.67;67.70
80321;BME280;69633;47.066;15.450;2024-01-06T01:51:30;96353.03;;;7.64;67.56
80321;BME280;69633;47.066;15.450;2024-01-06T01:53:59;96346.22;;;7.63;67.56
80321;BME280;69633;47.066;15.450;2024-01-06T01:56:26;96340.03;;;7.71;67.45
80321;BME280;69633;47.066;15.450;2024-01-06T01:58:53;96331.25;;;7.67;67.39
80321;BME280;69633;47.066;15.450;2024-01-06T02:01:18;96325.88;;;7.63;67.91
80321;BME280;69633;47.066;15.450;2024-01-06T02:03:44;96318.34;;;7.65;67.52
80321;BME280;69633;47.066;15.450;2024-01-06T02:06:10;96319.91;;;7.66;67.72
80321;BME280;69633;47.066;15.450;2024-01-06T02:08:36;96313.00;;;7.62;67.59
80321;BME280;69633;47.066;15.450;2024-01-06T02:11:01;96301.25;;;7.59;67.82
80321;BME280;69633;47.066;15.450;2024-01-06T02:13:35;96305.59;;;7.67;68.06
80321;BME280;69633;47.066;15.450;2024-01-06T02:16:02;96303.63;;;7.80;67.69
80321;BME280;69633;47.066;15.450;2024-01-06T02:18:28;96310.13;;;7.98;66.74
80321;BME280;69633;47.066;15.450;2024-01-06T02:20:56;96303.84;;;7.87;67.34
80321;BME280;69633;47.066;15.450;2024-01-06T02:23:22;96299.53;;;7.67;67.98
80321;BME280;69633;47.066;15.450;2024-01-06T02:25:48;96305.25;;;7.69;67.76
80321;BME280;69633;47.066;15.450;2024-01-06T02:28:13;96304.59;;;7.72;68.12
80321;BME280;69633;47.066;15.450;2024-01-06T02:30:39;96295.72;;;7.64;67.89
80321;BME280;69633;47.066;15.450;2024-01-06T02:33:04;96289.66;;;7.64;68.36
80321;BME280;69633;47.066;15.450;2024-01-06T02:35:30;96291.63;;;7.67;68.42
80321;BME280;69633;47.066;15.450;2024-01-06T02:37:55;96297.53;;;7.76;68.35
80321;BME280;69633;47.066;15.450;2024-01-06T02:40:20;96284.88;;;7.69;68.40
80321;BME280;69633;47.066;15.450;2024-01-06T02:42:46;96287.13;;;7.67;68.56
80321;BME280;69633;47.066;15.450;2024-01-06T02:45:11;96288.91;;;7.79;68.23
80321;BME280;69633;47.066;15.450;2024-01-06T02:47:37;96285.16;;;7.80;68.06
80321;BME280;69633;47.066;15.450;2024-01-06T02:50:03;96284.72;;;7.78;68.28
80321;BME280;69633;47.066;15.450;2024-01-06T02:52:28;96281.41;;;7.81;68.10
80321;BME280;69633;47.066;15.450;2024-01-06T02:54:53;96278.75;;;7.81;67.93
80321;BME280;69633;47.066;15.450;2024-01-06T02:57:19;96281.75;;;7.80;68.01
80321;BME280;69633;47.066;15.450;2024-01-06T02:59:44;96290.19;;;7.85;68.56
80321;BME280;69633;47.066;15.450;2024-01-06T03:02:11;96289.50;;;7.88;68.32
80321;BME280;69633;47.066;15.450;2024-01-06T03:04:36;96283.13;;;7.89;68.02
80321;BME280;69633;47.066;15.450;2024-01-06T03:07:02;96286.44;;;7.86;68.27
80321;BME280;69633;47.066;15.450;2024-01-06T03:09:27;96286.59;;;7.93;68.18
80321;BME280;69633;47.066;15.450;2024-01-06T03:11:53;96286.69;;;7.97;67.71
80321;BME280;69633;47.066;15.450;2024-01-06T03:14:18;96293.44;;;7.94;67.75
80321;BME280;69633;47.066;15.450;2024-01-06T03:16:44;96291.63;;;7.83;67.85
80321;BME280;69633;47.066;15.450;2024-01-06T03:19:09;96283.97;;;7.77;68.13
80321;BME280;69633;47.066;15.450;2024-01-06T03:21:34;96291.28;;;7.84;68.51
80321;BME280;69633;47.066;15.450;2024-01-06T03:24:00;96290.19;;;7.85;68.31
80321;BME280;69633;47.066;15.450;2024-01-06T03:26:25;96285.59;;;7.82;68.11
80321;BME280;69633;47.066;15.450;2024-01-06T03:28:51;96283.44;;;7.88;68.00
80321;BME280;69633;47.066;15.450;2024-01-06T03:31:16;96284.91;;;8.01;67.90
80321;BME280;69633;47.066;15.450;2024-01-06T03:33:43;96282.25;;;8.16;66.83
80321;BME280;69633;47.066;15.450;2024-01-06T03:36:09;96285.06;;;8.23;66.83
80321;BME280;69633;47.066;15.450;2024-01-06T03:38:37;96276.28;;;8.19;67.18
80321;BME280;69633;47.066;15.450;2024-01-06T03:41:02;96269.38;;;8.15;67.13
80321;BME280;69633;47.066;15.450;2024-01-06T03:43:28;96283.75;;;8.17;67.17
80321;BME280;69633;47.066;15.450;2024-01-06T03:45:53;96288.53;;;8.27;67.20
80321;BME280;69633;47.066;15.450;2024-01-06T03:48:20;96283.84;;;8.37;66.73
80321;BME280;69633;47.066;15.450;2024-01-06T03:50:46;96274.28;;;8.48;66.02
80321;BME280;69633;47.066;15.450;2024-01-06T03:53:11;96275.25;;;8.59;65.72
80321;BME280;69633;47.066;15.450;2024-01-06T03:55:37;96279.44;;;8.60;65.64
80321;BME280;69633;47.066;15.450;2024-01-06T03:58:02;96280.53;;;8.59;65.91
80321;BME280;69633;47.066;15.450;2024-01-06T04:00:28;96287.38;;;8.60;66.05
80321;BME280;69633;47.066;15.450;2024-01-06T04:02:53;96286.69;;;8.63;66.52
80321;BME280;69633;47.066;15.450;2024-01-06T04:05:19;96287.53;;;8.67;66.30
80321;BME280;69633;47.066;15.450;2024-01-06T04:07:44;96291.75;;;8.52;66.33
80321;BME280;69633;47.066;15.450;2024-01-06T04:10:09;96297.66;;;8.46;66.78
80321;BME280;69633;47.066;15.450;2024-01-06T04:12:35;96290.81;;;8.45;66.70
80321;BME280;69633;47.066;15.450;2024-01-06T04:15:00;96288.53;;;8.43;66.51
80321;BME280;69633;47.066;15.450;2024-01-06T04:17:26;96303.28;;;8.29;66.64
80321;BME280;69633;47.066;15.450;2024-01-06T04:19:52;96293.38;;;8.25;67.77
80321;BME280;69633;47.066;15.450;2024-01-06T04:22:18;96291.03;;;8.20;67.48
80321;BME280;69633;47.066;15.450;2024-01-06T04:24:43;96288.78;;;8.22;67.71
80321;BME280;69633;47.066;15.450;2024-01-06T04:27:09;96288.09;;;8.25;67.80
80321;BME280;69633;47.066;15.450;2024-01-06T04:29:35;96284.28;;;8.23;67.63
80321;BME280;69633;47.066;15.450;2024-01-06T04:32:00;96283.94;;;8.24;69.45
80321;BME280;69633;47.066;15.450;2024-01-06T04:34:25;96287.94;;;8.18;70.00
80321;BME280;69633;47.066;15.450;2024-01-06T04:36:51;96277.28;;;8.15;70.16
80321;BME280;69633;47.066;15.450;2024-01-06T04:39:16;96289.41;;;8.16;70.80
80321;BME280;69633;47.066;15.450;2024-01-06T04:41:42;96293.06;;;8.11;70.17
80321;BME280;69633;47.066;15.450;2024-01-06T04:44:07;96303.56;;;8.08;70.09
80321;BME280;69633;47.066;15.450;2024-01-06T04:46:33;96296.66;;;8.03;70.31
80321;BME280;69633;47.066;15.450;2024-01-06T04:48:58;96300.66;;;7.82;70.58
80321;BME280;69633;47.066;15.450;2024-01-06T04:51:24;96299.88;;;7.65;70.74
80321;BME280;69633;47.066;15.450;2024-01-06T04:53:49;96299.78;;;7.62;71.62
80321;BME280;69633;47.066;15.450;2024-01-06T04:56:15;96299.31;;;7.72;71.37
80321;BME280;69633;47.066;15.450;2024-01-06T04:58:40;96309.28;;;7.94;69.66
80321;BME280;69633;47.066;15.450;2024-01-06T05:01:06;96302.28;;;7.86;70.09
80321;BME280;69633;47.066;15.450;2024-01-06T05:03:31;96306.38;;;7.68;71.10
80321;BME280;69633;47.066;15.450;2024-01-06T05:05:57;96307.22;;;7.72;71.95
80321;BME280;69633;47.066;15.450;2024-01-06T05:08:22;96313.47;;;7.80;71.04
80321;BME280;69633;47.066;15.450;2024-01-06T05:10:48;96306.03;;;7.85;71.21
80321;BME280;69633;47.066;15.450;2024-01-06T05:13:14;96305.69;;;7.71;71.94
80321;BME280;69633;47.066;15.450;2024-01-06T05:15:39;96303.34;;;7.54;72.29
80321;BME280;69633;47.066;15.450;2024-01-06T05:18:05;96304.28;;;7.61;72.92
80321;BME280;69633;47.066;15.450;2024-01-06T05:20:31;96305.25;;;7.69;72.57
80321;BME280;69633;47.066;15.450;2024-01-06T05:22:56;96308.56;;;7.66;72.04
80321;BME280;69633;47.066;15.450;2024-01-06T05:25:22;96310.44;;;7.50;72.56
80321;BME280;69633;47.066;15.450;2024-01-06T05:27:47;96307.59;;;7.43;72.95
80321;BME280;69633;47.066;15.450;2024-01-06T05:30:12;96307.84;;;7.38;73.67
80321;BME280;69633;47.066;15.450;2024-01-06T05:32:38;96305.44;;;7.33;73.99
80321;BME280;69633;47.066;15.450;2024-01-06T05:35:04;96309.78;;;7.25;74.52
80321;BME280;69633;47.066;15.450;2024-01-06T05:37:30;96311.91;;;7.19;74.80
80321;BME280;69633;47.066;15.450;2024-01-06T05:39:56;96312.09;;;7.26;75.24
80321;BME280;69633;47.066;15.450;2024-01-06T05:42:23;96318.66;;;7.33;75.08
80321;BME280;69633;47.066;15.450;2024-01-06T05:44:49;96323.88;;;7.45;75.03
80321;BME280;69633;47.066;15.450;2024-01-06T05:47:14;96325.50;;;7.49;74.64
80321;BME280;69633;47.066;15.450;2024-01-06T05:49:43;96317.81;;;7.44;75.30
80321;BME280;69633;47.066;15.450;2024-01-06T05:52:11;96322.38;;;7.32;75.74
80321;BME280;69633;47.066;15.450;2024-01-06T05:54:36;96319.75;;;7.32;76.09
80321;BME280;69633;47.066;15.450;2024-01-06T05:57:05;96320.03;;;7.42;76.35
80321;BME280;69633;47.066;15.450;2024-01-06T05:59:32;96321.75;;;7.50;76.52
80321;BME280;69633;47.066;15.450;2024-01-06T06:01:58;96317.28;;;7.39;76.54
80321;BME280;69633;47.066;15.450;2024-01-06T06:04:23;96320.41;;;7.28;76.72
80321;BME280;69633;47.066;15.450;2024-01-06T06:06:49;96313.22;;;7.13;77.78
80321;BME280;69633;47.066;15.450;2024-01-06T06:09:14;96311.34;;;7.14;77.68
80321;BME280;69633;47.066;15.450;2024-01-06T06:11:40;96309.59;;;7.18;78.17
80321;BME280;69633;47.066;15.450;2024-01-06T06:14:06;96310.88;;;7.24;78.41
80321;BME280;69633;47.066;15.450;2024-01-06T06:16:31;96315.81;;;7.25;78.08
80321;BME280;69633;47.066;15.450;2024-01-06T06:18:57;96317.78;;;7.28;78.14
80321;BME280;69633;47.066;15.450;2024-01-06T06:21:23;96308.69;;;7.26;78.20
80321;BME280;69633;47.066;15.450;2024-01-06T06:23:49;96319.66;;;7.28;77.82
80321;BME280;69633;47.066;15.450;2024-01-06T06:26:15;96328.19;;;7.37;78.01
80321;BME280;69633;47.066;15.450;2024-01-06T06:28:40;96320.28;;;7.37;78.12
80321;BME280;69633;47.066;15.450;2024-01-06T06:31:06;96319.28;;;7.42;78.14
80321;BME280;69633;47.066;15.450;2024-01-06T06:33:32;96305.53;;;7.36;77.87
80321;BME280;69633;47.066;15.450;2024-01-06T06:36:01;96321.19;;;7.29;77.91
80321;BME280;69633;47.066;15.450;2024-01-06T06:38:27;96317.63;;;7.37;78.19
80321;BME280;69633;47.066;15.450;2024-01-06T06:40:52;96313.50;;;7.24;78.23
80321;BME280;69633;47.066;15.450;2024-01-06T06:43:18;96314.75;;;7.14;77.83
80321;BME280;69633;47.066;15.450;2024-01-06T06:45:43;96310.34;;;7.18;78.19
80321;BME280;69633;47.066;15.450;2024-01-06T06:48:08;96312.75;;;7.23;78.14
80321;BME280;69633;47.066;15.450;2024-01-06T06:50:34;96316.25;;;7.27;78.46
80321;BME280;69633;47.066;15.450;2024-01-06T06:53:00;96311.81;;;7.32;78.25
80321;BME280;69633;47.066;15.450;2024-01-06T06:55:26;96309.63;;;7.34;78.53
80321;BME280;69633;47.066;15.450;2024-01-06T06:57:52;96313.13;;;7.38;78.71
80321;BME280;69633;47.066;15.450;2024-01-06T07:00:18;96314.94;;;7.49;78.46
80321;BME280;69633;47.066;15.450;2024-01-06T07:02:44;96305.50;;;7.64;78.29
80321;BME280;69633;47.066;15.450;2024-01-06T07:05:09;96318.22;;;7.74;77.25
80321;BME280;69633;47.066;15.450;2024-01-06T07:07:35;96319.47;;;7.80;76.27
80321;BME280;69633;47.066;15.450;2024-01-06T07:10:01;96311.16;;;7.78;77.02
80321;BME280;69633;47.066;15.450;2024-01-06T07:12:28;96315.22;;;7.60;77.15
80321;BME280;69633;47.066;15.450;2024-01-06T07:14:53;96322.78;;;7.61;77.49
80321;BME280;69633;47.066;15.450;2024-01-06T07:17:19;96325.06;;;7.47;77.41
80321;BME280;69633;47.066;15.450;2024-01-06T07:19:44;96326.94;;;7.47;77.40
80321;BME280;69633;47.066;15.450;2024-01-06T07:22:10;96331.56;;;7.50;77.54
80321;BME280;69633;47.066;15.450;2024-01-06T07:24:36;96333.06;;;7.51;78.20
80321;BME280;69633;47.066;15.450;2024-01-06T07:27:02;96334.63;;;7.52;77.92
80321;BME280;69633;47.066;15.450;2024-01-06T07:29:28;96334.03;;;7.58;78.10
80321;BME280;69633;47.066;15.450;2024-01-06T07:31:54;96332.34;;;7.66;77.78
80321;BME280;69633;47.066;15.450;2024-01-06T07:34:19;96331.91;;;7.64;77.35
80321;BME280;69633;47.066;15.450;2024-01-06T07:36:45;96332.34;;;7.66;77.97
80321;BME280;69633;47.066;15.450;2024-01-06T07:39:10;96325.19;;;7.66;78.01
80321;BME280;69633;47.066;15.450;2024-01-06T07:41:35;96327.59;;;7.71;77.81
80321;BME280;69633;47.066;15.450;2024-01-06T07:44:01;96325.28;;;7.70;78.15
80321;BME280;69633;47.066;15.450;2024-01-06T07:46:28;96326.38;;;7.69;78.86
80321;BME280;69633;47.066;15.450;2024-01-06T07:48:54;96327.66;;;7.59;78.63
80321;BME280;69633;47.066;15.450;2024-01-06T07:51:19;96323.91;;;7.60;79.03
80321;BME280;69633;47.066;15.450;2024-01-06T07:53:45;96323.63;;;7.65;77.87
80321;BME280;69633;47.066;15.450;2024-01-06T07:56:10;96318.03;;;7.67;78.60
80321;BME280;69633;47.066;15.450;2024-01-06T07:58:36;96323.38;;;7.55;78.39
80321;BME280;69633;47.066;15.450;2024-01-06T08:01:01;96328.78;;;7.46;78.59
80321;BME280;69633;47.066;15.450;2024-01-06T08:03:27;96332.31;;;7.50;78.94
80321;BME280;69633;47.066;15.450;2024-01-06T08:05:53;96332.97;;;7.47;79.20
80321;BME280;69633;47.066;15.450;2024-01-06T08:08:19;96325.56;;;7.37;79.42
80321;BME280;69633;47.066;15.450;2024-01-06T08:10:45;96326.66;;;7.36;79.78
80321;BME280;69633;47.066;15.450;2024-01-06T08:13:11;96327.34;;;7.33;80.11
80321;BME280;69633;47.066;15.450;2024-01-06T08:15:37;96323.69;;;7.38;80.34
80321;BME280;69633;47.066;15.450;2024-01-06T08:18:02;96328.09;;;7.34;80.20
80321;BME280;69633;47.066;15.450;2024-01-06T08:20:28;96333.56;;;7.41;80.57
80321;BME280;69633;47.066;15.450;2024-01-06T08:22:54;96334.34;;;7.41;80.10
80321;BME280;69633;47.066;15.450;2024-01-06T08:25:20;96324.56;;;7.42;79.84
80321;BME280;69633;47.066;15.450;2024-01-06T08:27:45;96323.00;;;7.41;80.50
80321;BME280;69633;47.066;15.450;2024-01-06T08:30:11;96332.66;;;7.49;79.48
80321;BME280;69633;47.066;15.450;2024-01-06T08:32:37;96331.13;;;7.48;79.76
80321;BME280;69633;47.066;15.450;2024-01-06T08:35:03;96334.38;;;7.57;79.54
80321;BME280;69633;47.066;15.450;2024-01-06T08:37:29;96333.06;;;7.51;79.60
80321;BME280;69633;47.066;15.450;2024-01-06T08:39:55;96335.13;;;7.57;79.65
80321;BME280;69633;47.066;15.450;2024-01-06T08:42:20;96333.94;;;7.55;79.83
80321;BME280;69633;47.066;15.450;2024-01-06T08:44:46;96337.03;;;7.57;79.81
80321;BME280;69633;47.066;15.450;2024-01-06T08:47:13;96337.41;;;7.43;79.67
80321;BME280;69633;47.066;15.450;2024-01-06T08:49:38;96338.94;;;7.44;80.04
80321;BME280;69633;47.066;15.450;2024-01-06T08:52:04;96345.09;;;7.48;80.55
80321;BME280;69633;47.066;15.450;2024-01-06T08:54:31;96341.25;;;7.46;79.93
80321;BME280;69633;47.066;15.450;2024-01-06T08:56:56;96341.03;;;7.39;80.48
80321;BME280;69633;47.066;15.450;2024-01-06T08:59:22;96347.53;;;7.41;80.09
80321;BME280;69633;47.066;15.450;2024-01-06T09:01:47;96354.88;;;7.48;79.95
80321;BME280;69633;47.066;15.450;2024-01-06T09:04:13;96361.78;;;7.52;80.06
80321;BME280;69633;47.066;15.450;2024-01-06T09:06:38;96356.59;;;7.56;80.36
80321;BME280;69633;47.066;15.450;2024-01-06T09:09:04;96366.53;;;7.74;80.12
80321;BME280;69633;47.066;15.450;2024-01-06T09:11:31;96359.38;;;7.75;79.39
80321;BME280;69633;47.066;15.450;2024-01-06T09:13:56;96361.91;;;7.71;80.15
80321;BME280;69633;47.066;15.450;2024-01-06T09:16:21;96364.66;;;7.75;80.23
80321;BME280;69633;47.066;15.450;2024-01-06T09:18:48;96364.19;;;7.73;80.38
80321;BME280;69633;47.066;15.450;2024-01-06T09:21:14;96369.06;;;7.71;80.44
80321;BME280;69633;47.066;15.450;2024-01-06T09:23:40;96368.16;;;7.79;80.62
80321;BME280;69633;47.066;15.450;2024-01-06T09:26:05;96372.84;;;8.01;80.71
80321;BME280;69633;47.066;15.450;2024-01-06T09:28:31;96366.13;;;8.04;79.82
80321;BME280;69633;47.066;15.450;2024-01-06T09:30:56;96362.38;;;8.05;79.83
80321;BME280;69633;47.066;15.450;2024-01-06T09:33:22;96364.50;;;7.99;79.44
80321;BME280;69633;47.066;15.450;2024-01-06T09:35:48;96365.84;;;7.93;79.66
80321;BME280;69633;47.066;15.450;2024-01-06T09:38:13;96367.41;;;7.94;79.72
80321;BME280;69633;47.066;15.450;2024-01-06T09:40:43;96364.81;;;7.82;79.47
80321;BME280;69633;47.066;15.450;2024-01-06T09:43:12;96359.03;;;7.92;79.37
80321;BME280;69633;47.066;15.450;2024-01-06T09:45:38;96356.84;;;7.94;79.59
80321;BME280;69633;47.066;15.450;2024-01-06T09:48:13;96362.19;;;7.82;80.19
80321;BME280;69633;47.066;15.450;2024-01-06T09:50:43;96364.16;;;7.85;80.11
80321;BME280;69633;47.066;15.450;2024-01-06T09:53:11;96369.09;;;7.87;79.86
80321;BME280;69633;47.066;15.450;2024-01-06T09:55:37;96363.28;;;7.81;80.29
80321;BME280;69633;47.066;15.450;2024-01-06T09:58:04;96364.66;;;7.75;80.36
80321;BME280;69633;47.066;15.450;2024-01-06T10:00:30;96363.00;;;7.70;80.85
80321;BME280;69633;47.066;15.450;2024-01-06T10:02:55;96360.47;;;7.74;81.54
80321;BME280;69633;47.066;15.450;2024-01-06T10:05:21;96359.00;;;7.76;81.83
80321;BME280;69633;47.066;15.450;2024-01-06T10:07:47;96358.41;;;7.67;81.20
80321;BME280;69633;47.066;15.450;2024-01-06T10:10:14;96356.19;;;7.69;81.82
80321;BME280;69633;47.066;15.450;2024-01-06T10:12:43;96353.63;;;7.73;81.79
80321;BME280;69633;47.066;15.450;2024-01-06T10:15:10;96353.91;;;7.68;82.08
80321;BME280;69633;47.066;15.450;2024-01-06T10:17:39;96351.91;;;7.65;81.96
80321;BME280;69633;47.066;15.450;2024-01-06T10:20:09;96347.09;;;7.67;82.51
80321;BME280;69633;47.066;15.450;2024-01-06T10:22:41;96343.91;;;7.61;82.18
80321;BME280;69633;47.066;15.450;2024-01-06T10:25:08;96348.53;;;7.64;82.94
80321;BME280;69633;47.066;15.450;2024-01-06T10:27:35;96342.47;;;7.64;82.01
80321;BME280;69633;47.066;15.450;2024-01-06T10:30:01;96343.81;;;7.58;82.87
80321;BME280;69633;47.066;15.450;2024-01-06T10:32:27;96340.16;;;7.62;83.40
80321;BME280;69633;47.066;15.450;2024-01-06T10:34:55;96341.34;;;7.65;82.83
80321;BME280;69633;47.066;15.450;2024-01-06T10:37:21;96342.31;;;7.57;83.01
80321;BME280;69633;47.066;15.450;2024-01-06T10:39:46;96338.34;;;7.51;83.43
80321;BME280;69633;47.066;15.450;2024-01-06T10:42:13;96335.19;;;7.45;83.77
80321;BME280;69633;47.066;15.450;2024-01-06T10:44:40;96332.22;;;7.47;84.06
80321;BME280;69633;47.066;15.450;2024-01-06T10:47:06;96332.22;;;7.47;84.05
80321;BME280;69633;47.066;15.450;2024-01-06T10:49:32;96327.13;;;7.54;83.94
80321;BME280;69633;47.066;15.450;2024-01-06T10:51:59;96334.88;;;7.62;83.97
80321;BME280;69633;47.066;15.450;2024-01-06T10:54:27;96327.47;;;7.52;83.75
80321;BME280;69633;47.066;15.450;2024-01-06T10:56:53;96323.38;;;7.55;84.57
80321;BME280;69633;47.066;15.450;2024-01-06T10:59:21;96316.63;;;7.57;84.67
80321;BME280;69633;47.066;15.450;2024-01-06T11:01:48;96316.75;;;7.61;84.79
80321;BME280;69633;47.066;15.450;2024-01-06T11:04:15;96318.28;;;7.62;84.84
80321;BME280;69633;47.066;15.450;2024-01-06T11:06:42;96318.28;;;7.62;85.38
80321;BME280;69633;47.066;15.450;2024-01-06T11:09:24;96314.13;;;7.61;85.01
80321;BME280;69633;47.066;15.450;2024-01-06T11:11:53;96313.44;;;7.64;85.31
80321;BME280;69633;47.066;15.450;2024-01-06T11:14:26;96303.03;;;7.71;85.18
80321;BME280;69633;47.066;15.450;2024-01-06T11:16:53;96304.16;;;7.70;85.26
80321;BME280;69633;47.066;15.450;2024-01-06T11:24:53;96302.00;;;7.60;85.65
80321;BME280;69633;47.066;15.450;2024-01-06T11:27:24;96302.25;;;7.55;85.15
80321;BME280;69633;47.066;15.450;2024-01-06T11:29:52;96296.88;;;7.51;85.75
80321;BME280;69633;47.066;15.450;2024-01-06T11:32:39;96303.63;;;7.49;85.37
80321;BME280;69633;47.066;15.450;2024-01-06T11:35:16;96298.16;;;7.42;86.01
80321;BME280;69633;47.066;15.450;2024-01-06T11:45:33;96285.44;;;7.32;86.77
80321;BME280;69633;47.066;15.450;2024-01-06T11:48:01;96289.72;;;7.36;86.66
80321;BME280;69633;47.066;15.450;2024-01-06T11:50:28;96291.56;;;7.36;86.56
80321;BME280;69633;47.066;15.450;2024-01-06T11:52:55;96284.97;;;7.42;86.08
80321;BME280;69633;47.066;15.450;2024-01-06T11:55:20;96287.59;;;7.42;86.19
80321;BME280;69633;47.066;15.450;2024-01-06T11:57:46;96291.34;;;7.41;86.61
80321;BME280;69633;47.066;15.450;2024-01-06T12:00:16;96275.41;;;7.37;86.09
80321;BME280;69633;47.066;15.450;2024-01-06T12:02:42;96291.56;;;7.36;86.79
80321;BME280;69633;47.066;15.450;2024-01-06T12:05:15;96277.44;;;7.28;86.92
80321;BME280;69633;47.066;15.450;2024-01-06T12:07:41;96283.47;;;7.28;87.58
80321;BME280;69633;47.066;15.450;2024-01-06T12:10:08;96289.53;;;7.29;87.71
80321;BME280;69633;47.066;15.450;2024-01-06T12:12:33;96281.69;;;7.33;87.29
80321;BME280;69633;47.066;15.450;2024-01-06T12:14:59;96283.19;;;7.46;87.63
80321;BME280;69633;47.066;15.450;2024-01-06T12:17:29;96274.56;;;7.49;87.19
80321;BME280;69633;47.066;15.450;2024-01-06T12:19:54;96279.03;;;7.60;87.26
80321;BME280;69633;47.066;15.450;2024-01-06T12:22:20;96274.41;;;7.57;87.25
80321;BME280;69633;47.066;15.450;2024-01-06T12:24:49;96270.66;;;7.58;87.36
80321;BME280;69633;47.066;15.450;2024-01-06T12:27:16;96266.84;;;7.56;87.56
80321;BME280;69633;47.066;15.450;2024-01-06T12:29:42;96269.03;;;7.54;87.73
80321;BME280;69633;47.066;15.450;2024-01-06T12:32:11;96267.53;;;7.53;87.82
80321;BME280;69633;47.066;15.450;2024-01-06T12:34:39;96267.75;;;7.48;88.01
80321;BME280;69633;47.066;15.450;2024-01-06T12:37:05;96280.97;;;7.48;87.90
80321;BME280;69633;47.066;15.450;2024-01-06T12:39:31;96269.38;;;7.52;87.98
80321;BME280;69633;47.066;15.450;2024-01-06T12:41:57;96264.44;;;7.51;88.03
80321;BME280;69633;47.066;15.450;2024-01-06T12:44:25;96273.66;;;7.57;87.91
80321;BME280;69633;47.066;15.450;2024-01-06T12:46:50;96272.19;;;7.59;88.02
80321;BME280;69633;47.066;15.450;2024-01-06T12:49:16;96272.53;;;7.58;87.73
80321;BME280;69633;47.066;15.450;2024-01-06T12:51:42;96273.22;;;7.55;87.80
80321;BME280;69633;47.066;15.450;2024-01-06T12:54:07;96273.81;;;7.64;88.09
80321;BME280;69633;47.066;15.450;2024-01-06T12:56:33;96275.53;;;7.72;87.29
80321;BME280;69633;47.066;15.450;2024-01-06T12:58:58;96271.13;;;7.76;87.51
80321;BME280;69633;47.066;15.450;2024-01-06T13:01:25;96278.19;;;7.72;87.53
80321;BME280;69633;47.066;15.450;2024-01-06T13:03:50;96280.38;;;7.70;87.05
80321;BME280;69633;47.066;15.450;2024-01-06T13:06:16;96275.94;;;7.74;87.28
80321;BME280;69633;47.066;15.450;2024-01-06T13:08:44;96274.09;;;7.74;87.29